Myrtle, Nebraska
Current Conditions -  °F | °C
As of 12:53 AM on Friday 28 Nov 2014 (Local Time) from KBBW Reporting Station
Clear Clear  
Wind Chill: 21°   Ceiling: Unl
Heat Index: 21°   Visibility: 10mi
Dew Point: 15°   Wind: 0mph
Humidity: 78%   Direction: NA
Pressure: 29.91"   Gusts: NA
Location:  41.3289°N, 99.3286°W
Report Text: KBBW 280653Z AUTO 00000KT 10SM CLR M06/M09 A2991 RMK AO2 SLP152 T10611094
Loading
Personal Weather Stations






























Interactive Weather Map New forecast layout! Learn more

10-Day Weather Forecast

Advertisements
Track Severe Weather on mobile